createdAt,value
2019-03-22T00:02:23.077Z,86.61
2019-03-22T00:04:53.290Z,83.60
2019-03-22T00:07:23.650Z,83.94
2019-03-22T00:09:53.818Z,85.55
2019-03-22T00:12:23.974Z,78.76
2019-03-22T00:14:54.207Z,83.26
2019-03-22T00:17:24.416Z,78.30
2019-03-22T00:19:54.622Z,79.43
2019-03-22T00:22:24.767Z,80.77
2019-03-22T00:24:54.939Z,80.97
2019-03-22T00:27:25.116Z,82.20
2019-03-22T00:29:55.283Z,85.88
2019-03-22T00:32:25.497Z,84.07
2019-03-22T00:34:55.802Z,84.95
2019-03-22T00:37:26.112Z,86.26
2019-03-22T00:39:56.336Z,89.81
2019-03-22T00:42:26.460Z,85.56
2019-03-22T00:44:56.658Z,86.32
2019-03-22T00:47:26.851Z,77.71
2019-03-22T00:49:57.027Z,81.18
2019-03-22T00:52:27.264Z,87.42
2019-03-22T00:54:57.429Z,79.76
2019-03-22T00:57:28.724Z,78.40
2019-03-22T00:59:59.303Z,81.68
2019-03-22T01:02:29.477Z,78.96
2019-03-22T01:04:59.817Z,79.70
2019-03-22T01:07:29.983Z,76.64
2019-03-22T01:10:00.358Z,77.49
2019-03-22T01:12:30.544Z,82.62
2019-03-22T01:15:00.694Z,78.92
2019-03-22T01:17:30.919Z,76.84
2019-03-22T01:20:01.033Z,85.39
2019-03-22T01:22:31.186Z,86.44
2019-03-22T01:25:01.446Z,83.01
2019-03-22T01:27:39.766Z,86.47
2019-03-22T01:30:03.791Z,83.60
2019-03-22T01:32:33.973Z,80.57
2019-03-22T01:35:04.232Z,75.76
2019-03-22T01:37:34.411Z,73.70
2019-03-22T01:40:04.888Z,74.51
2019-03-22T01:42:36.068Z,74.64
2019-03-22T01:45:07.933Z,81.38
2019-03-22T01:47:38.293Z,84.21
2019-03-22T01:50:10.299Z,74.63
2019-03-22T01:52:41.003Z,78.28
2019-03-22T01:55:11.303Z,79.72
2019-03-22T01:57:52.395Z,73.58
2019-03-22T02:00:13.795Z,77.33
2019-03-22T02:02:44.040Z,76.34
2019-03-22T02:05:15.905Z,79.97
2019-03-22T02:07:46.157Z,77.84
2019-03-22T02:10:16.378Z,75.30
2019-03-22T02:12:46.529Z,77.22
2019-03-22T02:15:16.979Z,73.11
2019-03-22T02:17:47.138Z,73.48
2019-03-22T02:20:17.627Z,74.65
2019-03-22T02:22:48.001Z,74.88
2019-03-22T02:25:18.163Z,70.58
2019-03-22T02:27:48.329Z,70.14
2019-03-22T02:30:18.687Z,70.81
2019-03-22T02:32:49.146Z,68.29
2019-03-22T02:35:28.265Z,69.36
2019-03-22T02:37:51.196Z,68.19
2019-03-22T02:40:21.360Z,67.93
2019-03-22T02:42:51.527Z,68.65
2019-03-22T02:45:21.728Z,71.15
2019-03-22T02:47:51.959Z,71.55
2019-03-22T02:50:22.141Z,70.36
2019-03-22T02:52:52.278Z,70.89
2019-03-22T02:55:22.454Z,68.35
2019-03-22T02:57:52.667Z,71.05
2019-03-22T03:00:22.810Z,72.10
2019-03-22T03:02:53.094Z,72.09
2019-03-22T03:05:23.248Z,71.18
2019-03-22T03:07:53.525Z,64.21
2019-03-22T03:10:23.724Z,62.95
2019-03-22T03:12:53.884Z,64.72
2019-03-22T03:15:24.035Z,66.51
2019-03-22T03:17:54.222Z,67.85
2019-03-22T03:20:24.406Z,69.89
2019-03-22T03:22:54.676Z,73.76
2019-03-22T03:25:24.883Z,83.44
2019-03-22T03:27:55.028Z,79.96
2019-03-22T03:30:25.250Z,82.29
2019-03-22T03:32:55.456Z,87.75
2019-03-22T03:35:25.652Z,88.59
2019-03-22T03:37:55.823Z,94.80
2019-03-22T03:40:25.957Z,94.37
2019-03-22T03:42:56.323Z,94.86
2019-03-22T03:45:33.526Z,98.55
2019-03-22T03:48:04.901Z,100.00
2019-03-22T03:50:35.164Z,97.00
2019-03-22T03:53:05.694Z,97.63
2019-03-22T03:55:36.074Z,95.03
2019-03-22T03:58:06.582Z,93.16
2019-03-22T04:00:37.099Z,92.98
2019-03-22T04:03:07.392Z,95.16
2019-03-22T04:05:37.610Z,90.34
2019-03-22T04:08:07.873Z,92.35
2019-03-22T04:10:38.124Z,88.01
2019-03-22T04:13:08.350Z,93.50
2019-03-22T04:15:38.487Z,86.20
2019-03-22T04:18:08.692Z,91.73
2019-03-22T04:20:38.849Z,86.65
2019-03-22T04:23:08.951Z,89.05
2019-03-22T04:25:39.105Z,81.23
2019-03-22T04:28:09.273Z,75.43
2019-03-22T04:30:39.496Z,74.79
2019-03-22T04:33:09.767Z,79.34
2019-03-22T04:35:39.909Z,82.33
2019-03-22T04:38:10.101Z,82.95
2019-03-22T04:40:40.249Z,75.24
2019-03-22T04:43:10.440Z,72.67
2019-03-22T04:45:41.892Z,73.85
2019-03-22T04:48:30.509Z,73.48
2019-03-22T04:51:03.758Z,76.51
2019-03-22T04:53:44.722Z,81.61
2019-03-22T04:56:18.278Z,92.31
2019-03-22T04:58:50.759Z,83.36
2019-03-22T05:01:23.852Z,85.30
2019-03-22T05:03:54.886Z,85.34
2019-03-22T05:06:25.554Z,87.33
2019-03-22T05:08:58.061Z,87.76
2019-03-22T05:11:29.868Z,80.32
2019-03-22T05:14:02.116Z,85.43
2019-03-22T05:16:34.183Z,84.30
2019-03-22T05:19:04.963Z,79.80
2019-03-22T05:21:36.640Z,97.69
2019-03-22T05:24:08.456Z,79.07
2019-03-22T05:26:40.837Z,82.78
2019-03-22T05:29:14.004Z,74.96
2019-03-22T05:32:15.907Z,76.18
2019-03-22T05:34:46.183Z,71.64
2019-03-22T05:37:16.538Z,78.61
2019-03-22T05:39:46.720Z,80.45
2019-03-22T05:42:16.887Z,78.46
2019-03-22T05:44:47.094Z,73.32
2019-03-22T05:47:17.237Z,70.60
2019-03-22T05:49:49.354Z,67.67
2019-03-22T05:52:19.546Z,66.95
2019-03-22T05:54:52.463Z,65.76
2019-03-22T05:57:23.248Z,74.60
2019-03-22T05:59:54.345Z,69.21
2019-03-22T06:02:25.948Z,68.38
2019-03-22T06:04:57.170Z,69.44
2019-03-22T06:07:28.312Z,64.40
2019-03-22T06:09:58.947Z,65.24
2019-03-22T06:12:29.806Z,64.16
2019-03-22T06:15:01.259Z,63.66
2019-03-22T06:17:34.942Z,78.43
2019-03-22T06:20:05.802Z,66.86
2019-03-22T06:22:36.679Z,66.63
2019-03-22T06:25:08.144Z,68.63
2019-03-22T06:27:40.761Z,68.97
2019-03-22T06:30:12.915Z,78.44
2019-03-22T06:32:46.720Z,70.96
2019-03-22T06:35:17.450Z,64.71
2019-03-22T06:37:49.079Z,65.68
2019-03-22T06:40:22.120Z,62.33
2019-03-22T06:42:52.478Z,65.09
2019-03-22T06:45:22.891Z,60.37
2019-03-22T06:47:53.501Z,62.24
2019-03-22T06:50:23.984Z,64.61
2019-03-22T06:53:02.239Z,62.29
2019-03-22T06:55:36.439Z,61.82
2019-03-22T06:58:07.903Z,61.82
2019-03-22T07:00:41.011Z,66.19
2019-03-22T07:03:12.519Z,59.56
2019-03-22T07:05:43.612Z,58.97
2019-03-22T07:08:14.986Z,59.53
2019-03-22T07:10:46.451Z,61.03
2019-03-22T07:13:18.369Z,64.12
2019-03-22T07:15:49.896Z,62.13
2019-03-22T07:18:22.475Z,62.06
2019-03-22T07:20:54.514Z,59.72
2019-03-22T07:23:26.634Z,57.56
2019-03-22T07:25:57.643Z,59.51
2019-03-22T07:28:29.469Z,59.54
2019-03-22T07:31:01.499Z,56.78
2019-03-22T07:33:32.905Z,57.84
2019-03-22T07:36:04.061Z,59.02
2019-03-22T07:38:35.963Z,60.02
2019-03-22T07:41:08.179Z,61.43
2019-03-22T07:43:38.921Z,59.02
2019-03-22T07:52:06.815Z,54.77
2019-03-22T07:54:39.134Z,55.83
2019-03-22T07:57:12.125Z,52.96
2019-03-22T07:59:44.794Z,52.44
2019-03-22T08:03:11.482Z,53.50
2019-03-22T08:05:50.960Z,53.77
2019-03-22T08:08:14.642Z,51.26
2019-03-22T08:10:45.712Z,48.61
2019-03-22T08:13:18.239Z,47.67
2019-03-22T08:15:49.085Z,49.20
2019-03-22T08:18:20.467Z,49.92
2019-03-22T08:20:51.150Z,51.11
2019-03-22T08:23:22.945Z,51.54
2019-03-22T08:25:55.515Z,51.50
2019-03-22T08:28:27.694Z,50.20
2019-03-22T08:30:59.488Z,51.71
2019-03-22T08:33:30.907Z,50.54
2019-03-22T08:36:03.002Z,49.98
2019-03-22T08:38:36.737Z,50.41
2019-03-22T08:41:08.600Z,48.96
2019-03-22T08:43:40.423Z,51.33
2019-03-22T08:46:10.882Z,52.38
2019-03-22T08:48:41.126Z,49.15
2019-03-22T08:51:11.375Z,54.84
2019-03-22T08:53:54.357Z,47.28
2019-03-22T08:56:16.301Z,47.65
2019-03-22T08:58:47.135Z,48.82
2019-03-22T09:01:17.287Z,48.70
2019-03-22T09:03:47.436Z,50.02
2019-03-22T09:06:17.953Z,51.21
2019-03-22T09:08:48.444Z,50.26
2019-03-22T09:11:23.931Z,50.76
2019-03-22T09:13:54.760Z,48.38
2019-03-22T09:16:26.962Z,48.28
2019-03-22T09:18:57.437Z,48.08
2019-03-22T09:21:28.366Z,45.91
2019-03-22T09:24:00.143Z,45.47
2019-03-22T09:26:31.082Z,47.30
2019-03-22T09:29:02.383Z,45.61
2019-03-22T09:31:33.714Z,46.17
2019-03-22T09:34:05.015Z,48.19
2019-03-22T09:36:36.937Z,50.72
2019-03-22T09:39:09.820Z,46.45
2019-03-22T09:41:41.246Z,43.62
2019-03-22T09:44:12.978Z,47.53
2019-03-22T09:46:44.013Z,43.49
2019-03-22T09:49:15.388Z,43.94
2019-03-22T09:51:45.519Z,42.87
2019-03-22T09:54:15.727Z,46.56
2019-03-22T09:56:47.371Z,44.89
2019-03-22T09:59:17.984Z,43.25
2019-03-22T10:01:48.190Z,41.82
2019-03-22T10:04:18.383Z,41.00
2019-03-22T10:06:52.948Z,41.50
2019-03-22T10:09:26.303Z,41.57
2019-03-22T10:11:57.606Z,41.77
2019-03-22T10:14:31.371Z,40.39
2019-03-22T10:17:03.064Z,41.00
2019-03-22T10:19:34.823Z,38.34
2019-03-22T10:22:05.010Z,37.75
2019-03-22T10:24:35.210Z,35.72
2019-03-22T10:27:05.568Z,35.67
2019-03-22T10:29:35.840Z,38.16
2019-03-22T10:32:06.137Z,38.22
2019-03-22T10:34:39.569Z,37.57
2019-03-22T10:37:08.229Z,38.54
2019-03-22T10:39:38.383Z,35.78
2019-03-22T10:42:08.557Z,33.84
2019-03-22T10:44:39.540Z,34.13
2019-03-22T10:47:09.756Z,33.63
2019-03-22T10:49:41.872Z,36.12
2019-03-22T10:52:11.748Z,38.25
2019-03-22T10:54:41.960Z,38.29
2019-03-22T10:57:12.169Z,36.99
2019-03-22T10:59:42.288Z,36.86
2019-03-22T11:02:12.861Z,35.91
2019-03-22T11:04:43.026Z,35.68
2019-03-22T11:07:13.317Z,37.20
2019-03-22T11:09:43.590Z,44.33
2019-03-22T11:12:13.803Z,38.67
2019-03-22T11:14:45.698Z,36.49
2019-03-22T11:17:16.006Z,35.22
2019-03-22T11:19:46.117Z,36.71
2019-03-22T11:22:16.334Z,34.42
2019-03-22T11:24:46.469Z,37.67
2019-03-22T11:27:16.639Z,35.80
2019-03-22T11:29:46.814Z,35.22
2019-03-22T11:32:17.002Z,35.33
2019-03-22T11:34:47.175Z,34.85
2019-03-22T11:37:17.467Z,34.59
2019-03-22T11:39:47.588Z,36.53
2019-03-22T11:42:17.822Z,36.14
2019-03-22T11:44:47.961Z,37.12
2019-03-22T11:47:18.255Z,36.61
2019-03-22T11:49:48.421Z,34.05
2019-03-22T11:52:18.562Z,34.42
2019-03-22T11:54:48.824Z,34.85
2019-03-22T11:57:18.973Z,34.19
2019-03-22T11:59:49.158Z,34.95
2019-03-22T12:02:22.617Z,33.93
2019-03-22T12:04:51.116Z,32.85
2019-03-22T12:07:21.308Z,31.71
2019-03-22T12:09:51.556Z,35.19
2019-03-22T12:12:21.767Z,33.09
2019-03-22T12:14:51.958Z,32.65
2019-03-22T12:17:22.141Z,32.16
2019-03-22T12:19:52.812Z,33.83
2019-03-22T12:22:22.993Z,33.96
2019-03-22T12:24:53.230Z,33.01
2019-03-22T12:27:23.395Z,34.71
2019-03-22T12:29:53.519Z,36.39
2019-03-22T12:32:31.980Z,36.83
2019-03-22T12:34:55.757Z,36.32
2019-03-22T12:37:25.923Z,37.01
2019-03-22T12:39:56.087Z,37.08
2019-03-22T12:42:26.221Z,33.25
2019-03-22T12:44:56.432Z,35.20
2019-03-22T12:47:26.555Z,36.26
2019-03-22T12:49:56.760Z,35.16
2019-03-22T12:52:27.018Z,35.94
2019-03-22T12:54:57.194Z,35.04
2019-03-22T12:57:27.349Z,37.60
2019-03-22T12:59:57.549Z,35.85
2019-03-22T13:02:27.847Z,35.75
2019-03-22T13:04:58.675Z,36.08
2019-03-22T13:07:28.818Z,34.79
2019-03-22T13:09:58.997Z,34.38
2019-03-22T13:12:29.157Z,33.69
2019-03-22T13:14:59.366Z,33.75
2019-03-22T13:17:29.489Z,32.11
2019-03-22T13:19:59.702Z,32.96
2019-03-22T13:22:29.888Z,32.33
2019-03-22T13:25:00.122Z,36.88
2019-03-22T13:27:30.548Z,35.90
2019-03-22T13:30:00.758Z,32.15
2019-03-22T13:32:30.995Z,31.05
2019-03-22T13:35:01.194Z,30.70
2019-03-22T13:37:31.338Z,31.78
2019-03-22T13:40:01.573Z,30.10
2019-03-22T13:42:31.845Z,36.07
2019-03-22T13:45:02.031Z,32.88
2019-03-22T13:47:32.246Z,34.29
2019-03-22T13:50:02.452Z,33.95
2019-03-22T13:52:32.678Z,32.84
2019-03-22T13:55:02.937Z,37.42
2019-03-22T13:57:33.076Z,37.53
2019-03-22T14:00:03.264Z,34.54
2019-03-22T14:02:35.410Z,34.71
2019-03-22T14:05:06.652Z,34.36
2019-03-22T14:07:36.910Z,34.57
2019-03-22T14:10:07.415Z,33.08
2019-03-22T14:12:37.723Z,33.82
2019-03-22T14:15:08.263Z,31.89
2019-03-22T14:17:38.525Z,30.53
2019-03-22T14:20:11.557Z,31.57
2019-03-22T14:25:09.206Z,32.23
2019-03-22T14:27:39.356Z,31.13
2019-03-22T14:30:09.897Z,31.16
2019-03-22T14:32:40.180Z,31.92
2019-03-22T14:35:10.407Z,31.27
2019-03-22T14:37:40.596Z,39.94
2019-03-22T14:40:15.603Z,36.57
2019-03-22T14:42:42.691Z,34.42
2019-03-22T14:45:13.534Z,36.08
2019-03-22T14:47:43.716Z,39.02
2019-03-22T14:50:14.138Z,38.89
2019-03-22T14:52:44.328Z,37.03
2019-03-22T14:55:16.119Z,37.88
2019-03-22T14:57:49.920Z,38.91
2019-03-22T15:00:18.498Z,37.13
2019-03-22T15:02:48.802Z,35.46
2019-03-22T15:05:19.011Z,36.35
2019-03-22T15:07:49.232Z,37.38
2019-03-22T15:10:19.499Z,36.95
2019-03-22T15:12:49.979Z,37.21
2019-03-22T15:15:37.744Z,38.08
2019-03-22T15:18:19.322Z,43.71
2019-03-22T15:21:14.439Z,38.27
2019-03-22T15:24:13.090Z,39.00
2019-03-22T15:27:19.568Z,39.57
2019-03-22T15:30:04.880Z,39.04
2019-03-22T15:33:02.974Z,39.09
2019-03-22T15:35:54.932Z,40.43
2019-03-22T15:39:02.580Z,43.99
2019-03-22T15:41:32.845Z,41.78
2019-03-22T15:44:03.044Z,44.57
2019-03-22T15:46:33.317Z,44.14
2019-03-22T15:49:03.503Z,42.69
2019-03-22T15:51:33.672Z,44.21
2019-03-22T15:54:03.805Z,43.43
2019-03-22T15:56:33.943Z,43.33
2019-03-22T15:59:04.221Z,41.90
2019-03-22T16:01:34.354Z,42.78
2019-03-22T16:04:04.663Z,46.02
2019-03-22T16:06:34.808Z,46.49
2019-03-22T16:09:06.757Z,47.70
2019-03-22T16:11:36.931Z,45.64
2019-03-22T16:14:07.360Z,44.65
2019-03-22T16:16:37.645Z,42.90
2019-03-22T16:19:07.848Z,43.60
2019-03-22T16:21:37.953Z,43.01
2019-03-22T16:24:08.120Z,42.92
2019-03-22T16:26:38.266Z,42.95
2019-03-22T16:29:08.351Z,43.05
2019-03-22T16:31:38.510Z,41.71
2019-03-22T16:34:08.640Z,42.63
2019-03-22T16:36:38.761Z,39.43
2019-03-22T16:39:10.162Z,41.29
2019-03-22T16:41:40.315Z,39.49
2019-03-22T16:44:10.487Z,41.12
2019-03-22T16:46:40.614Z,40.16
2019-03-22T16:49:10.763Z,39.52
2019-03-22T16:51:40.884Z,39.18
2019-03-22T16:54:11.061Z,40.14
2019-03-22T16:56:41.165Z,39.80
2019-03-22T16:59:11.314Z,40.23
2019-03-22T17:01:41.437Z,41.35
2019-03-22T17:04:11.570Z,43.19
2019-03-22T17:06:41.771Z,41.08
2019-03-22T17:09:11.893Z,41.00
2019-03-22T17:11:42.017Z,39.61
2019-03-22T17:14:12.161Z,40.36
2019-03-22T17:16:42.302Z,42.20
2019-03-22T17:19:12.474Z,42.06
2019-03-22T17:21:42.598Z,43.21
2019-03-22T17:24:12.734Z,41.64
2019-03-22T17:26:42.950Z,42.36
2019-03-22T17:29:13.055Z,43.48
2019-03-22T17:31:43.325Z,43.40
2019-03-22T17:34:14.416Z,44.10
2019-03-22T17:36:44.686Z,44.12
2019-03-22T17:39:14.839Z,43.85
2019-03-22T17:41:45.067Z,44.52
2019-03-22T17:44:16.004Z,43.78
2019-03-22T17:46:46.220Z,46.62
2019-03-22T17:49:16.393Z,47.55
2019-03-22T17:51:46.581Z,46.70
2019-03-22T17:54:16.711Z,46.16
2019-03-22T17:56:46.876Z,46.79
2019-03-22T17:59:17.056Z,47.46
2019-03-22T18:01:47.250Z,49.25
2019-03-22T18:04:24.147Z,47.60
2019-03-22T18:06:49.409Z,47.53
2019-03-22T18:09:19.616Z,49.51
2019-03-22T18:11:49.807Z,49.09
2019-03-22T18:14:20.033Z,49.12
2019-03-22T18:16:50.162Z,50.60
2019-03-22T18:19:20.351Z,50.54
2019-03-22T18:21:50.457Z,49.72
2019-03-22T18:24:20.620Z,49.67
2019-03-22T18:26:50.812Z,50.42
2019-03-22T18:29:21.012Z,49.93
2019-03-22T18:31:51.159Z,49.99
2019-03-22T18:34:21.366Z,48.77
2019-03-22T18:36:51.571Z,48.64
2019-03-22T18:39:21.773Z,49.09
2019-03-22T18:41:51.982Z,49.31
2019-03-22T18:44:22.086Z,49.07
2019-03-22T18:46:52.271Z,47.05
2019-03-22T18:49:22.428Z,46.46
2019-03-22T18:51:52.662Z,46.12
2019-03-22T18:54:22.798Z,46.08
2019-03-22T18:56:52.904Z,46.11
2019-03-22T18:59:23.100Z,45.81
2019-03-22T19:01:53.365Z,46.14
2019-03-22T19:04:23.492Z,46.44
2019-03-22T19:06:53.615Z,46.46
2019-03-22T19:09:23.820Z,46.55
2019-03-22T19:11:54.046Z,47.07
2019-03-22T19:14:24.215Z,47.21
2019-03-22T19:16:54.392Z,46.71
2019-03-22T19:19:24.613Z,47.19
2019-03-22T19:21:54.808Z,47.32
2019-03-22T19:24:25.009Z,47.94
2019-03-22T19:26:55.216Z,48.19
2019-03-22T19:29:25.478Z,48.44
2019-03-22T19:31:55.615Z,48.14
2019-03-22T19:34:25.821Z,47.46
2019-03-22T19:36:55.989Z,47.93
2019-03-22T19:39:26.170Z,51.14
2019-03-22T19:41:56.306Z,50.78
2019-03-22T19:44:26.526Z,50.38
2019-03-22T19:46:56.736Z,49.58
2019-03-22T19:49:26.857Z,49.38
2019-03-22T19:51:57.061Z,50.49
2019-03-22T19:54:27.196Z,50.81
2019-03-22T19:56:57.381Z,50.57
2019-03-22T19:59:27.542Z,49.45
2019-03-22T20:01:57.740Z,49.14
2019-03-22T20:04:27.951Z,49.15
2019-03-22T20:06:58.213Z,49.18
2019-03-22T20:09:28.413Z,49.47
2019-03-22T20:11:58.704Z,49.41
2019-03-22T20:14:28.980Z,49.74
2019-03-22T20:16:59.165Z,49.50
2019-03-22T20:19:29.640Z,49.92
2019-03-22T20:21:59.864Z,50.12
2019-03-22T20:24:30.049Z,49.71
2019-03-22T20:27:00.232Z,49.42
2019-03-22T20:29:32.497Z,49.56
2019-03-22T20:32:02.616Z,49.65
2019-03-22T20:34:32.753Z,49.67
2019-03-22T20:37:02.938Z,49.96
2019-03-22T20:39:33.190Z,51.62
2019-03-22T20:42:03.402Z,51.96
2019-03-22T20:44:34.330Z,53.50
2019-03-22T20:47:04.653Z,52.49
2019-03-22T20:49:35.514Z,52.03
2019-03-22T20:52:05.759Z,53.08
2019-03-22T20:54:36.049Z,51.43
2019-03-22T20:57:06.391Z,52.13
2019-03-22T20:59:36.645Z,52.67
2019-03-22T21:02:06.906Z,52.76
2019-03-22T21:04:37.115Z,53.23
2019-03-22T21:07:07.351Z,54.00
2019-03-22T21:09:37.654Z,54.69
2019-03-22T21:12:07.902Z,54.84
2019-03-22T21:14:38.832Z,54.47
2019-03-22T21:17:09.039Z,54.15
2019-03-22T21:19:39.334Z,54.75
2019-03-22T21:22:09.954Z,53.46
2019-03-22T21:24:40.122Z,55.77
2019-03-22T21:27:15.436Z,51.89
2019-03-22T21:29:44.447Z,54.22
2019-03-22T21:32:14.441Z,54.48
2019-03-22T21:34:44.729Z,55.82
2019-03-22T21:37:14.857Z,56.58
2019-03-22T21:39:44.953Z,58.20
2019-03-22T21:42:15.161Z,58.72
2019-03-22T21:44:45.322Z,58.42
2019-03-22T21:47:15.476Z,58.54
2019-03-22T21:49:45.597Z,58.88
2019-03-22T21:52:15.811Z,57.99
2019-03-22T21:54:46.003Z,58.22
2019-03-22T21:57:16.158Z,58.32
2019-03-22T21:59:46.306Z,57.86
2019-03-22T22:02:16.514Z,57.93
2019-03-22T22:04:46.784Z,57.94
2019-03-22T22:07:17.022Z,58.48
2019-03-22T22:09:47.303Z,59.23
2019-03-22T22:12:17.542Z,59.11
2019-03-22T22:14:47.764Z,58.75
2019-03-22T22:17:17.986Z,59.09
2019-03-22T22:19:48.233Z,58.49
2019-03-22T22:22:18.383Z,58.52
2019-03-22T22:24:48.566Z,59.53
2019-03-22T22:27:18.747Z,59.90
2019-03-22T22:29:48.943Z,58.42
2019-03-22T22:32:19.079Z,58.70
2019-03-22T22:34:49.268Z,59.47
2019-03-22T22:37:19.511Z,59.61
2019-03-22T22:39:49.665Z,59.87
2019-03-22T22:42:19.862Z,59.10
2019-03-22T22:44:50.108Z,58.73
2019-03-22T22:47:20.314Z,58.34
2019-03-22T22:49:50.491Z,59.07
2019-03-22T22:52:20.667Z,58.72
2019-03-22T22:54:50.839Z,58.60
2019-03-22T22:57:21.072Z,58.11
2019-03-22T22:59:51.205Z,57.79
2019-03-22T23:02:21.348Z,57.72
2019-03-22T23:04:51.431Z,58.30
2019-03-22T23:07:21.611Z,58.61
2019-03-22T23:09:51.739Z,58.21
2019-03-22T23:12:21.929Z,60.04
2019-03-22T23:14:52.167Z,59.15
2019-03-22T23:17:23.284Z,58.67
2019-03-22T23:19:53.468Z,58.54
2019-03-22T23:22:23.708Z,59.46
2019-03-22T23:24:53.808Z,59.90
2019-03-22T23:27:23.916Z,59.30
2019-03-22T23:29:54.113Z,58.98
2019-03-22T23:32:24.252Z,58.60
2019-03-22T23:34:59.035Z,59.38
2019-03-22T23:37:26.276Z,59.07
2019-03-22T23:39:56.499Z,61.76
2019-03-22T23:42:26.665Z,61.15
2019-03-22T23:44:57.051Z,61.04
2019-03-22T23:47:27.408Z,60.56
2019-03-22T23:49:57.547Z,60.36
2019-03-22T23:52:27.748Z,60.47
2019-03-22T23:54:57.966Z,61.58
2019-03-22T23:57:28.191Z,61.82
2019-03-22T23:59:58.355Z,62.15
